Time;durP1;ratioP1;P1;durP2;ratioP2;P2;SDS_P1;SDS_P2;PMS_P1;PMS_P2;Temp;Humidity;BMP_temperature;BMP_pressure;BME280_temperature;BME280_humidity;BME280_pressure;Samples;Min_cycle;Max_cycle;Signal;HPM_P1;HPM_P2
2022/08/07 00:00:26;;;;;;;12.13;7.90;;;;;;;;;;5063564;28;20800;-66
2022/08/07 00:02:54;;;;;;;10.55;7.60;;;;;;;;;;5056923;28;20641;-66
2022/08/07 00:05:20;;;;;;;14.35;7.25;;;;;;;;;;5064299;28;20701;-66
2022/08/07 00:07:46;;;;;;;12.73;7.90;;;;;;;;;;5057343;28;20263;-66
2022/08/07 00:10:11;;;;;;;10.90;7.43;;;;;;;;;;5062520;28;20606;-66
2022/08/07 00:12:36;;;;;;;9.30;6.80;;;;;;;;;;5058343;28;20196;-66
2022/08/07 00:15:02;;;;;;;11.52;7.70;;;;;;;;;;5064642;28;20649;-66
2022/08/07 00:17:27;;;;;;;10.90;7.30;;;;;;;;;;5065989;28;20728;-66
2022/08/07 00:19:53;;;;;;;14.68;7.60;;;;;;;;;;5051738;28;20292;-66
2022/08/07 00:22:18;;;;;;;11.10;7.88;;;;;;;;;;5061900;28;20192;-66
2022/08/07 00:24:44;;;;;;;13.20;7.55;;;;;;;;;;5054567;28;20189;-66
2022/08/07 00:27:09;;;;;;;11.35;7.45;;;;;;;;;;5054553;28;20236;-66
2022/08/07 00:29:34;;;;;;;11.50;7.32;;;;;;;;;;5052421;28;20181;-66
2022/08/07 00:32:01;;;;;;;10.50;7.50;;;;;;;;;;5051949;28;20219;-66
2022/08/07 00:34:26;;;;;;;12.00;7.95;;;;;;;;;;5057265;28;20260;-66
2022/08/07 00:36:51;;;;;;;12.00;8.00;;;;;;;;;;5068734;28;20268;-66
2022/08/07 00:39:18;;;;;;;11.77;8.20;;;;;;;;;;5063354;28;20704;-66
2022/08/07 00:41:52;;;;;;;10.98;7.55;;;;;;;;;;5062969;28;20571;-66
2022/08/07 00:44:18;;;;;;;13.30;8.02;;;;;;;;;;5055121;28;20552;-66
2022/08/07 00:46:43;;;;;;;14.07;8.25;;;;;;;;;;5061662;28;20257;-66
2022/08/07 00:49:09;;;;;;;12.93;8.32;;;;;;;;;;5063960;28;20181;-65
2022/08/07 00:51:35;;;;;;;12.57;8.35;;;;;;;;;;5071411;28;20253;-65
2022/08/07 00:54:00;;;;;;;12.40;8.38;;;;;;;;;;5054239;28;20185;-66
2022/08/07 00:56:27;;;;;;;14.95;9.38;;;;;;;;;;5054276;28;20217;-66
2022/08/07 00:58:54;;;;;;;13.48;8.30;;;;;;;;;;5052897;28;20713;-66
2022/08/07 01:01:20;;;;;;;12.02;8.60;;;;;;;;;;5059543;28;20210;-66
2022/08/07 01:03:46;;;;;;;11.70;8.35;;;;;;;;;;5050786;28;20185;-65
2022/08/07 01:06:11;;;;;;;12.05;8.73;;;;;;;;;;5051389;28;20193;-65
2022/08/07 01:08:38;;;;;;;11.45;8.10;;;;;;;;;;5052508;28;20549;-65
2022/08/07 01:11:04;;;;;;;14.75;8.77;;;;;;;;;;5069901;28;20181;-65
2022/08/07 01:13:29;;;;;;;12.88;8.20;;;;;;;;;;5052253;28;20193;-65
2022/08/07 01:15:57;;;;;;;14.38;8.75;;;;;;;;;;5053914;28;20189;-65
2022/08/07 01:18:22;;;;;;;14.80;9.20;;;;;;;;;;5060777;28;20208;-65
2022/08/07 01:20:55;;;;;;;12.07;8.60;;;;;;;;;;5057201;28;20567;-66
2022/08/07 01:23:20;;;;;;;16.85;8.45;;;;;;;;;;5070607;28;20226;-66
2022/08/07 01:25:46;;;;;;;14.07;8.77;;;;;;;;;;5070130;28;20197;-66
2022/08/07 01:28:11;;;;;;;16.90;9.30;;;;;;;;;;5054430;28;20185;-67
2022/08/07 01:30:38;;;;;;;12.75;8.30;;;;;;;;;;5051460;28;20748;-66
2022/08/07 01:33:03;;;;;;;14.70;8.98;;;;;;;;;;5061119;28;20211;-65
2022/08/07 01:35:28;;;;;;;12.68;8.48;;;;;;;;;;5067983;28;20180;-66
2022/08/07 01:37:54;;;;;;;13.48;8.52;;;;;;;;;;5056339;28;20186;-66
2022/08/07 01:40:21;;;;;;;16.00;8.95;;;;;;;;;;5062176;28;20295;-65
2022/08/07 01:42:47;;;;;;;12.90;8.13;;;;;;;;;;5065488;28;20181;-65
2022/08/07 01:45:12;;;;;;;13.77;8.82;;;;;;;;;;5061452;28;20191;-65
2022/08/07 01:47:38;;;;;;;12.20;8.32;;;;;;;;;;5061902;28;20189;-66
2022/08/07 01:50:05;;;;;;;13.88;8.88;;;;;;;;;;5070237;28;20659;-66
2022/08/07 01:52:33;;;;;;;14.38;9.55;;;;;;;;;;5070201;28;20193;-66
2022/08/07 01:54:59;;;;;;;14.60;9.57;;;;;;;;;;5058298;28;20631;-66
2022/08/07 01:57:27;;;;;;;14.55;9.65;;;;;;;;;;5063400;28;20189;-66
2022/08/07 01:59:59;;;;;;;14.88;8.93;;;;;;;;;;5064340;28;20725;-66
2022/08/07 02:02:40;;;;;;;13.88;8.95;;;;;;;;;;5050735;28;20184;-66
2022/08/07 02:05:12;;;;;;;14.82;9.32;;;;;;;;;;5069314;28;20188;-66
2022/08/07 02:07:42;;;;;;;16.02;9.20;;;;;;;;;;5069283;28;20185;-66
2022/08/07 02:10:07;;;;;;;15.93;9.20;;;;;;;;;;5050874;28;20181;-66
2022/08/07 02:12:37;;;;;;;13.60;9.63;;;;;;;;;;5050635;28;20182;-66
2022/08/07 02:15:03;;;;;;;15.10;9.25;;;;;;;;;;5048179;28;20201;-66
2022/08/07 02:17:29;;;;;;;15.38;9.27;;;;;;;;;;5053390;28;20264;-66
2022/08/07 02:19:57;;;;;;;18.08;10.35;;;;;;;;;;5050210;28;20178;-67
2022/08/07 02:22:23;;;;;;;16.13;10.32;;;;;;;;;;5057469;28;20219;-66
2022/08/07 02:24:53;;;;;;;13.32;8.90;;;;;;;;;;5062285;28;20188;-66
2022/08/07 02:27:21;;;;;;;14.93;9.57;;;;;;;;;;5053803;28;20225;-66
2022/08/07 02:29:48;;;;;;;17.80;9.45;;;;;;;;;;5055909;28;20193;-66
2022/08/07 02:32:17;;;;;;;13.10;9.13;;;;;;;;;;5053173;28;20192;-66
2022/08/07 02:34:43;;;;;;;17.15;10.63;;;;;;;;;;5063883;28;20550;-66
2022/08/07 02:37:10;;;;;;;18.27;10.63;;;;;;;;;;5067915;28;20640;-66
2022/08/07 02:39:38;;;;;;;16.73;10.10;;;;;;;;;;5069752;28;20173;-66
2022/08/07 02:42:06;;;;;;;14.38;10.40;;;;;;;;;;5066868;28;20250;-66
2022/08/07 02:44:31;;;;;;;16.55;10.55;;;;;;;;;;5049596;28;20189;-66
2022/08/07 02:46:59;;;;;;;17.23;11.70;;;;;;;;;;5061176;28;20258;-66
2022/08/07 02:49:24;;;;;;;17.27;10.40;;;;;;;;;;5063217;28;20270;-66
2022/08/07 02:51:54;;;;;;;17.88;11.13;;;;;;;;;;5048999;28;20654;-66
2022/08/07 02:54:21;;;;;;;18.73;11.05;;;;;;;;;;5051590;28;20188;-66
2022/08/07 02:56:48;;;;;;;19.83;11.57;;;;;;;;;;5061649;28;20196;-66
2022/08/07 02:59:18;;;;;;;19.58;10.50;;;;;;;;;;5052693;28;20193;-66
2022/08/07 03:01:44;;;;;;;15.10;9.80;;;;;;;;;;5064619;28;20209;-66
2022/08/07 03:04:12;;;;;;;18.60;10.98;;;;;;;;;;5066823;28;20187;-66
2022/08/07 03:06:38;;;;;;;19.98;11.25;;;;;;;;;;5057708;28;20256;-66
2022/08/07 03:09:06;;;;;;;20.60;11.32;;;;;;;;;;5051180;28;20193;-66
2022/08/07 03:11:33;;;;;;;18.27;11.45;;;;;;;;;;5059578;28;20291;-66
2022/08/07 03:13:59;;;;;;;20.10;11.40;;;;;;;;;;5049926;28;20191;-66
2022/08/07 03:16:25;;;;;;;17.83;11.20;;;;;;;;;;5064750;28;20267;-66
2022/08/07 03:18:51;;;;;;;18.73;11.00;;;;;;;;;;5068683;28;20491;-66
2022/08/07 03:21:17;;;;;;;17.25;10.85;;;;;;;;;;5048766;28;20196;-66
2022/08/07 03:23:44;;;;;;;18.67;11.40;;;;;;;;;;5052224;28;20196;-66
2022/08/07 03:26:12;;;;;;;16.60;10.95;;;;;;;;;;5054719;28;20290;-66
2022/08/07 03:28:40;;;;;;;17.83;11.52;;;;;;;;;;5061636;28;20191;-66
2022/08/07 03:31:18;;;;;;;19.13;11.05;;;;;;;;;;5049486;28;20229;-66
2022/08/07 03:33:53;;;;;;;20.52;11.90;;;;;;;;;;5056695;28;20173;-66
2022/08/07 03:36:21;;;;;;;18.25;10.77;;;;;;;;;;5062641;28;20531;-66
2022/08/07 03:38:48;;;;;;;20.55;12.00;;;;;;;;;;5064106;28;20179;-66
2022/08/07 03:41:14;;;;;;;19.45;11.63;;;;;;;;;;5061818;28;20220;-66
2022/08/07 03:43:40;;;;;;;18.13;11.50;;;;;;;;;;5052561;28;20638;-66
2022/08/07 03:46:07;;;;;;;18.52;11.80;;;;;;;;;;5065941;28;20177;-66
2022/08/07 03:48:33;;;;;;;17.67;11.57;;;;;;;;;;5060068;28;20192;-66
2022/08/07 03:51:00;;;;;;;19.65;12.00;;;;;;;;;;5068094;28;20183;-66
2022/08/07 03:53:26;;;;;;;22.05;12.48;;;;;;;;;;5067662;28;20187;-66
2022/08/07 03:55:52;;;;;;;19.73;11.55;;;;;;;;;;5052508;28;20678;-66
2022/08/07 03:58:20;;;;;;;18.88;12.02;;;;;;;;;;5056000;28;20193;-66
2022/08/07 04:00:48;;;;;;;18.58;11.55;;;;;;;;;;5055103;28;20691;-66
2022/08/07 04:03:14;;;;;;;19.45;11.63;;;;;;;;;;5049158;28;20188;-66
2022/08/07 04:05:39;;;;;;;19.02;12.30;;;;;;;;;;5065462;28;20380;-66
2022/08/07 04:08:05;;;;;;;19.73;12.35;;;;;;;;;;5059228;28;20188;-66
2022/08/07 04:10:31;;;;;;;20.05;11.27;;;;;;;;;;5051523;28;20177;-66
2022/08/07 04:12:57;;;;;;;20.60;12.10;;;;;;;;;;5054783;28;20271;-66
2022/08/07 04:15:22;;;;;;;17.92;11.52;;;;;;;;;;5051451;28;20177;-66
2022/08/07 04:17:48;;;;;;;19.55;12.15;;;;;;;;;;5050167;28;20181;-66
2022/08/07 04:20:13;;;;;;;19.45;12.25;;;;;;;;;;5051281;28;20205;-66
2022/08/07 04:22:40;;;;;;;20.38;12.18;;;;;;;;;;5052931;28;20626;-67
2022/08/07 04:25:07;;;;;;;20.00;12.13;;;;;;;;;;5054545;28;20189;-67
2022/08/07 04:27:33;;;;;;;21.48;12.13;;;;;;;;;;5053094;28;20229;-67
2022/08/07 04:29:58;;;;;;;21.02;11.63;;;;;;;;;;5053906;28;20554;-67
2022/08/07 04:32:24;;;;;;;20.67;11.93;;;;;;;;;;5068996;28;20200;-67
2022/08/07 04:34:51;;;;;;;20.70;12.00;;;;;;;;;;5069757;28;20173;-67
2022/08/07 04:37:16;;;;;;;19.67;12.32;;;;;;;;;;5057911;28;20306;-67
2022/08/07 04:39:42;;;;;;;20.30;12.73;;;;;;;;;;5054182;28;20260;-67
2022/08/07 04:42:07;;;;;;;21.80;12.80;;;;;;;;;;5056227;28;20199;-67
2022/08/07 04:44:34;;;;;;;21.67;12.38;;;;;;;;;;5055460;28;20189;-67
2022/08/07 04:47:21;;;;;;;20.38;12.73;;;;;;;;;;5050597;28;20420;-67
2022/08/07 04:50:03;;;;;;;19.95;11.85;;;;;;;;;;5059075;28;20641;-67
2022/08/07 04:52:43;;;;;;;19.92;12.70;;;;;;;;;;5065125;28;20712;-67
2022/08/07 04:55:20;;;;;;;24.90;12.95;;;;;;;;;;5056666;28;20189;-67
2022/08/07 04:57:49;;;;;;;19.85;12.23;;;;;;;;;;5051738;28;20256;-67
2022/08/07 05:00:24;;;;;;;19.30;12.60;;;;;;;;;;5057812;28;20205;-66
2022/08/07 05:03:05;;;;;;;18.65;11.30;;;;;;;;;;5052768;28;20312;-66
2022/08/07 05:05:36;;;;;;;23.42;12.68;;;;;;;;;;5053965;28;20182;-66
2022/08/07 05:08:06;;;;;;;19.63;11.80;;;;;;;;;;5053092;28;20180;-66
2022/08/07 05:10:40;;;;;;;18.52;11.88;;;;;;;;;;5056969;28;20192;-66
2022/08/07 05:13:09;;;;;;;18.80;11.98;;;;;;;;;;5049912;28;20748;-66
2022/08/07 05:15:38;;;;;;;23.45;14.35;;;;;;;;;;5053301;28;20186;-66
2022/08/07 05:18:12;;;;;;;25.25;12.95;;;;;;;;;;5051081;28;20290;-66
2022/08/07 05:20:40;;;;;;;21.63;12.65;;;;;;;;;;5064959;28;20193;-66
2022/08/07 05:23:46;;;;;;;20.73;13.43;;;;;;;;;;5056254;28;20747;-66
2022/08/07 05:26:16;;;;;;;22.02;13.23;;;;;;;;;;5055834;28;20221;-66
2022/08/07 05:28:44;;;;;;;22.92;12.90;;;;;;;;;;5063830;28;20185;-67
2022/08/07 05:31:12;;;;;;;21.38;13.80;;;;;;;;;;5051481;28;20193;-67
2022/08/07 05:33:39;;;;;;;19.30;12.95;;;;;;;;;;5060280;28;20196;-67
2022/08/07 05:36:08;;;;;;;18.35;12.32;;;;;;;;;;5057641;28;20310;-67
2022/08/07 05:38:34;;;;;;;24.10;13.50;;;;;;;;;;5066818;28;20234;-67
2022/08/07 05:41:01;;;;;;;22.23;14.18;;;;;;;;;;5056865;28;20204;-67
2022/08/07 05:43:27;;;;;;;24.42;14.68;;;;;;;;;;5058007;28;20576;-67
2022/08/07 05:45:52;;;;;;;25.33;15.32;;;;;;;;;;5052308;28;20181;-67
2022/08/07 05:48:19;;;;;;;26.42;15.90;;;;;;;;;;5060542;28;20192;-67
2022/08/07 05:50:45;;;;;;;24.13;15.27;;;;;;;;;;5066948;28;20195;-67
2022/08/07 05:53:10;;;;;;;27.65;15.38;;;;;;;;;;5061281;28;20409;-67
2022/08/07 05:55:37;;;;;;;25.67;15.85;;;;;;;;;;5056045;28;20630;-67
2022/08/07 05:58:05;;;;;;;25.17;15.70;;;;;;;;;;5052415;28;20289;-67
2022/08/07 06:00:33;;;;;;;29.85;15.85;;;;;;;;;;5054173;28;20253;-67
2022/08/07 06:03:00;;;;;;;26.90;16.08;;;;;;;;;;5052884;28;20226;-67
2022/08/07 06:05:27;;;;;;;27.55;16.05;;;;;;;;;;5054049;28;20350;-67
2022/08/07 06:07:53;;;;;;;27.73;16.05;;;;;;;;;;5055578;28;20193;-67
2022/08/07 06:10:19;;;;;;;26.98;16.38;;;;;;;;;;5063694;28;20169;-67
2022/08/07 06:12:45;;;;;;;26.70;16.23;;;;;;;;;;5050181;28;20591;-67
2022/08/07 06:15:14;;;;;;;25.55;15.55;;;;;;;;;;5053330;28;20185;-67
2022/08/07 06:17:39;;;;;;;23.02;15.07;;;;;;;;;;5053096;28;20208;-67
2022/08/07 06:20:07;;;;;;;26.00;15.07;;;;;;;;;;5059211;28;20188;-67
2022/08/07 06:22:34;;;;;;;27.00;15.27;;;;;;;;;;5054470;28;20209;-67
2022/08/07 06:24:59;;;;;;;25.48;15.35;;;;;;;;;;5050873;28;20189;-67
2022/08/07 06:27:25;;;;;;;22.20;15.07;;;;;;;;;;5048719;28;20221;-67
2022/08/07 06:29:51;;;;;;;27.52;14.98;;;;;;;;;;5055134;28;20656;-68
2022/08/07 06:32:17;;;;;;;23.73;14.80;;;;;;;;;;5049758;28;20197;-67
2022/08/07 06:34:42;;;;;;;26.73;14.88;;;;;;;;;;5058471;28;20774;-67
2022/08/07 06:37:08;;;;;;;24.55;14.40;;;;;;;;;;5058654;28;20210;-67
2022/08/07 06:39:33;;;;;;;21.20;13.50;;;;;;;;;;5059210;28;20553;-67
2022/08/07 06:42:06;;;;;;;26.23;13.75;;;;;;;;;;5050003;28;20708;-67
2022/08/07 06:44:33;;;;;;;22.65;13.80;;;;;;;;;;4351465;28;10000737;-68
2022/08/07 06:46:58;;;;;;;20.63;13.73;;;;;;;;;;5051799;28;20292;-68
2022/08/07 06:49:24;;;;;;;21.33;13.15;;;;;;;;;;5061376;28;20651;-67
2022/08/07 06:51:51;;;;;;;19.08;13.70;;;;;;;;;;5054189;28;20894;-67
2022/08/07 06:54:18;;;;;;;22.98;13.93;;;;;;;;;;5044443;28;20189;-67
2022/08/07 06:56:49;;;;;;;22.42;13.25;;;;;;;;;;5054443;28;20184;-67
2022/08/07 06:59:36;;;;;;;21.42;13.55;;;;;;;;;;5053826;28;20749;-68
2022/08/07 07:02:04;;;;;;;20.90;13.55;;;;;;;;;;5062058;28;20212;-68
2022/08/07 07:04:30;;;;;;;19.73;13.10;;;;;;;;;;5063912;28;20884;-68
2022/08/07 07:06:56;;;;;;;18.88;12.60;;;;;;;;;;5058577;28;20276;-67
2022/08/07 07:09:23;;;;;;;21.52;13.15;;;;;;;;;;5052543;28;20542;-67
2022/08/07 07:12:27;;;;;;;19.05;12.55;;;;;;;;;;5047431;28;20209;-68
2022/08/07 07:15:00;;;;;;;18.50;11.50;;;;;;;;;;5047293;28;20180;-68
2022/08/07 07:17:34;;;;;;;18.40;10.98;;;;;;;;;;5052151;28;20237;-67
2022/08/07 07:20:03;;;;;;;16.95;9.57;;;;;;;;;;5051685;28;20169;-68
2022/08/07 07:22:29;;;;;;;17.88;10.80;;;;;;;;;;5053526;28;20557;-68
2022/08/07 07:24:55;;;;;;;17.75;10.85;;;;;;;;;;5051923;28;20177;-68
2022/08/07 07:27:25;;;;;;;14.77;10.43;;;;;;;;;;5047408;28;20225;-68
2022/08/07 07:29:55;;;;;;;18.40;10.85;;;;;;;;;;5056713;28;20189;-68
2022/08/07 07:32:22;;;;;;;15.10;10.35;;;;;;;;;;5051911;28;20193;-68
2022/08/07 07:34:52;;;;;;;16.15;9.32;;;;;;;;;;5052255;28;20556;-68
2022/08/07 07:37:19;;;;;;;9.30;6.47;;;;;;;;;;5053263;28;20188;-68
2022/08/07 07:39:46;;;;;;;10.93;6.20;;;;;;;;;;5052314;28;20199;-67
2022/08/07 07:42:14;;;;;;;10.27;6.03;;;;;;;;;;5049292;28;20246;-67
2022/08/07 07:44:43;;;;;;;13.05;7.72;;;;;;;;;;5049965;28;20184;-67
2022/08/07 07:47:09;;;;;;;11.18;6.10;;;;;;;;;;5048687;28;20188;-67
2022/08/07 07:49:38;;;;;;;8.77;5.97;;;;;;;;;;5055145;28;20192;-67
2022/08/07 07:52:04;;;;;;;10.75;6.53;;;;;;;;;;5051624;28;20185;-66
2022/08/07 07:54:31;;;;;;;9.60;6.30;;;;;;;;;;5051752;28;20192;-67
2022/08/07 07:56:59;;;;;;;10.60;5.88;;;;;;;;;;5060409;28;20648;-67
2022/08/07 07:59:26;;;;;;;10.20;5.80;;;;;;;;;;5062945;28;20173;-67
2022/08/07 08:01:53;;;;;;;10.35;6.25;;;;;;;;;;5056963;28;20266;-67
2022/08/07 08:04:19;;;;;;;10.57;5.57;;;;;;;;;;5058278;28;20193;-67
2022/08/07 08:06:46;;;;;;;7.63;5.28;;;;;;;;;;5057456;28;20179;-68
2022/08/07 08:09:15;;;;;;;9.30;5.30;;;;;;;;;;5056041;28;20196;-68
2022/08/07 08:11:41;;;;;;;7.07;4.75;;;;;;;;;;5065295;28;20217;-68
2022/08/07 08:14:07;;;;;;;9.50;5.50;;;;;;;;;;5064516;28;20256;-67
2022/08/07 08:16:42;;;;;;;6.65;4.70;;;;;;;;;;5060080;28;20445;-68
2022/08/07 08:19:12;;;;;;;7.28;5.47;;;;;;;;;;5056039;28;20668;-67
2022/08/07 08:27:14;;;;;;;5.47;3.50;;;;;;;;;;5059922;28;20370;-67
2022/08/07 08:29:49;;;;;;;6.75;4.07;;;;;;;;;;5061846;28;20173;-67
2022/08/07 08:32:23;;;;;;;7.82;4.03;;;;;;;;;;5060622;28;20246;-66
2022/08/07 08:34:51;;;;;;;5.35;3.05;;;;;;;;;;5054917;28;20616;-66
2022/08/07 08:37:19;;;;;;;5.90;3.95;;;;;;;;;;5057866;28;20213;-66
2022/08/07 08:39:47;;;;;;;5.78;3.63;;;;;;;;;;5052111;28;20259;-66
2022/08/07 08:42:44;;;;;;;4.95;3.38;;;;;;;;;;5052348;28;20258;-66
2022/08/07 08:45:32;;;;;;;7.47;3.83;;;;;;;;;;5051274;28;20189;-67
2022/08/07 08:48:11;;;;;;;8.23;4.25;;;;;;;;;;5054086;28;20277;-68
2022/08/07 08:50:42;;;;;;;6.15;4.28;;;;;;;;;;5058082;28;20181;-67
2022/08/07 08:53:32;;;;;;;9.50;3.47;;;;;;;;;;5052919;28;20189;-66
2022/08/07 08:56:34;;;;;;;5.13;3.40;;;;;;;;;;5053304;28;20211;-67
2022/08/07 08:59:25;;;;;;;4.68;3.50;;;;;;;;;;5049521;28;20513;-67
2022/08/07 09:01:59;;;;;;;6.20;3.83;;;;;;;;;;5055353;28;20205;-67
2022/08/07 09:04:44;;;;;;;5.47;3.85;;;;;;;;;;5051192;28;20700;-67
2022/08/07 09:07:15;;;;;;;6.07;3.65;;;;;;;;;;5062109;28;20203;-67
2022/08/07 09:09:54;;;;;;;7.32;3.92;;;;;;;;;;5057095;28;20181;-69
2022/08/07 09:12:47;;;;;;;6.10;3.45;;;;;;;;;;5053986;28;20181;-68
2022/08/07 09:15:29;;;;;;;5.93;3.50;;;;;;;;;;5054043;28;20197;-67
2022/08/07 09:18:17;;;;;;;6.32;2.78;;;;;;;;;;5056616;28;20234;-67
2022/08/07 09:20:46;;;;;;;5.03;3.05;;;;;;;;;;5052883;28;20688;-67
2022/08/07 09:23:32;;;;;;;4.63;2.97;;;;;;;;;;5059496;28;20712;-69
2022/08/07 09:26:25;;;;;;;5.60;3.00;;;;;;;;;;5058819;28;20213;-67
2022/08/07 09:28:57;;;;;;;7.03;3.40;;;;;;;;;;5053772;28;20642;-67
2022/08/07 09:31:42;;;;;;;9.25;3.10;;;;;;;;;;5059281;28;20193;-67
2022/08/07 09:34:28;;;;;;;9.77;3.90;;;;;;;;;;5057551;28;20192;-65
2022/08/07 09:37:01;;;;;;;6.00;3.38;;;;;;;;;;5056265;28;20596;-66
2022/08/07 09:39:48;;;;;;;4.78;2.90;;;;;;;;;;5054711;28;20563;-66
2022/08/07 09:42:37;;;;;;;4.82;2.88;;;;;;;;;;5055346;28;20211;-66
2022/08/07 09:45:33;;;;;;;4.47;2.83;;;;;;;;;;5062529;28;20704;-66
2022/08/07 09:48:20;;;;;;;5.07;3.05;;;;;;;;;;5054628;28;20566;-67
2022/08/07 09:51:11;;;;;;;5.90;2.55;;;;;;;;;;5059351;28;20173;-67
2022/08/07 09:53:39;;;;;;;3.70;2.67;;;;;;;;;;5050897;28;20180;-65
2022/08/07 09:56:13;;;;;;;5.32;2.22;;;;;;;;;;5054558;28;20212;-65
2022/08/07 09:59:10;;;;;;;10.35;2.50;;;;;;;;;;5057953;28;20199;-65
2022/08/07 10:02:03;;;;;;;3.90;2.20;;;;;;;;;;5067226;28;20208;-65
2022/08/07 10:04:54;;;;;;;4.63;2.90;;;;;;;;;;5057106;28;20280;-66
2022/08/07 10:07:41;;;;;;;4.78;2.42;;;;;;;;;;5052291;28;20184;-65
2022/08/07 10:10:46;;;;;;;4.15;2.95;;;;;;;;;;5062963;28;20193;-66
2022/08/07 10:13:29;;;;;;;4.40;2.92;;;;;;;;;;5051516;28;20459;-66
2022/08/07 10:16:14;;;;;;;5.20;2.38;;;;;;;;;;5061463;28;20269;-66
2022/08/07 10:19:28;;;;;;;3.90;2.30;;;;;;;;;;5050095;28;20181;-66
2022/08/07 10:22:29;;;;;;;5.57;1.95;;;;;;;;;;5057879;28;20228;-66
2022/08/07 10:25:16;;;;;;;2.80;2.03;;;;;;;;;;5061697;28;20203;-66
2022/08/07 10:28:10;;;;;;;3.28;2.15;;;;;;;;;;5049051;28;20304;-65
2022/08/07 10:31:14;;;;;;;2.90;2.00;;;;;;;;;;5055442;28;20173;-65
2022/08/07 10:33:56;;;;;;;3.88;2.25;;;;;;;;;;5061832;28;20173;-66
2022/08/07 10:36:52;;;;;;;6.18;1.60;;;;;;;;;;5057385;28;20243;-66
2022/08/07 10:40:20;;;;;;;5.72;2.20;;;;;;;;;;5057823;28;20272;-65
2022/08/07 10:43:04;;;;;;;2.38;2.05;;;;;;;;;;5046000;28;20224;-69
2022/08/07 10:45:41;;;;;;;5.60;2.58;;;;;;;;;;5044243;28;20186;-67
2022/08/07 10:48:32;;;;;;;3.53;2.85;;;;;;;;;;5051946;28;20249;-66
2022/08/07 10:51:06;;;;;;;5.25;3.10;;;;;;;;;;5052891;28;20281;-67
2022/08/07 10:53:54;;;;;;;5.60;3.20;;;;;;;;;;5054622;28;20668;-67
2022/08/07 10:56:47;;;;;;;4.53;3.13;;;;;;;;;;5053465;28;20181;-66
2022/08/07 10:59:34;;;;;;;4.93;2.80;;;;;;;;;;5062583;28;20212;-66
2022/08/07 11:02:17;;;;;;;4.97;2.70;;;;;;;;;;5052834;28;20201;-67
2022/08/07 11:05:00;;;;;;;4.47;2.80;;;;;;;;;;4361906;28;10000716;-71
2022/08/07 11:07:53;;;;;;;4.97;3.00;;;;;;;;;;5055866;28;20231;-67
2022/08/07 11:10:32;;;;;;;5.78;2.78;;;;;;;;;;5059168;28;20263;-68
2022/08/07 11:13:06;;;;;;;4.60;3.00;;;;;;;;;;5064591;28;20211;-67
2022/08/07 11:15:37;;;;;;;11.02;3.20;;;;;;;;;;5064660;28;20195;-66
2022/08/07 11:18:13;;;;;;;3.85;2.42;;;;;;;;;;5063124;28;20192;-65
2022/08/07 11:20:55;;;;;;;4.05;2.75;;;;;;;;;;5062183;28;20205;-66
2022/08/07 11:23:51;;;;;;;4.05;3.03;;;;;;;;;;5060363;28;20308;-66
2022/08/07 11:26:38;;;;;;;4.55;3.00;;;;;;;;;;5045848;28;20229;-66
2022/08/07 11:29:15;;;;;;;4.00;2.92;;;;;;;;;;5049202;28;20181;-66
2022/08/07 11:31:49;;;;;;;5.88;3.05;;;;;;;;;;5055406;28;20207;-67
2022/08/07 11:34:20;;;;;;;4.80;2.78;;;;;;;;;;5054807;28;20184;-67
2022/08/07 11:37:01;;;;;;;4.13;2.92;;;;;;;;;;5053714;28;20202;-67
2022/08/07 11:39:49;;;;;;;4.15;2.70;;;;;;;;;;5050943;28;20180;-66
2022/08/07 11:42:40;;;;;;;4.82;2.78;;;;;;;;;;5051413;28;20217;-68
2022/08/07 11:45:15;;;;;;;7.35;2.92;;;;;;;;;;5059470;28;20652;-68
2022/08/07 11:48:02;;;;;;;4.32;2.85;;;;;;;;;;5059664;28;20203;-66
2022/08/07 11:51:01;;;;;;;3.40;2.83;;;;;;;;;;5057599;28;20200;-66
2022/08/07 11:53:38;;;;;;;3.97;2.70;;;;;;;;;;5054305;28;20257;-66
2022/08/07 11:56:27;;;;;;;2.90;2.58;;;;;;;;;;5047649;28;20236;-66
2022/08/07 11:59:08;;;;;;;3.90;2.50;;;;;;;;;;5065527;28;20224;-67
2022/08/07 12:01:47;;;;;;;5.78;2.70;;;;;;;;;;5068203;28;20529;-67
2022/08/07 12:04:44;;;;;;;2.95;2.65;;;;;;;;;;5058774;28;20192;-67
2022/08/07 12:07:23;;;;;;;4.72;2.92;;;;;;;;;;5054191;28;20189;-66
2022/08/07 12:09:56;;;;;;;5.53;2.60;;;;;;;;;;5061290;28;20213;-66
2022/08/07 12:12:35;;;;;;;2.78;2.35;;;;;;;;;;5053608;28;20326;-66
2022/08/07 12:15:04;;;;;;;4.10;2.88;;;;;;;;;;5052328;28;20223;-66
2022/08/07 12:17:39;;;;;;;4.35;2.60;;;;;;;;;;5045619;28;20181;-66
2022/08/07 12:20:34;;;;;;;3.58;2.90;;;;;;;;;;5049802;28;20193;-65
2022/08/07 12:23:12;;;;;;;5.35;2.90;;;;;;;;;;5049733;28;20465;-65
2022/08/07 12:25:51;;;;;;;4.57;2.78;;;;;;;;;;5046184;28;20218;-65
2022/08/07 12:28:22;;;;;;;4.32;2.72;;;;;;;;;;5046285;28;20265;-65
2022/08/07 12:30:52;;;;;;;7.28;3.72;;;;;;;;;;5052859;28;20188;-67
2022/08/07 12:33:22;;;;;;;4.25;3.38;;;;;;;;;;5050560;28;20184;-68
2022/08/07 12:35:49;;;;;;;3.85;2.78;;;;;;;;;;5052447;28;20636;-68
2022/08/07 12:38:16;;;;;;;3.35;3.05;;;;;;;;;;5053965;28;20699;-68
2022/08/07 12:40:45;;;;;;;3.45;2.60;;;;;;;;;;5048891;28;20201;-67
2022/08/07 12:43:12;;;;;;;3.53;2.53;;;;;;;;;;5052071;28;20555;-65
2022/08/07 12:46:19;;;;;;;3.28;2.97;;;;;;;;;;5054356;28;20189;-66
2022/08/07 12:49:08;;;;;;;5.18;2.75;;;;;;;;;;5049874;28;20565;-66
2022/08/07 12:51:41;;;;;;;4.95;2.78;;;;;;;;;;5051324;28;20571;-65
2022/08/07 12:54:17;;;;;;;3.88;2.92;;;;;;;;;;5049499;28;20251;-65
2022/08/07 12:56:45;;;;;;;4.80;2.80;;;;;;;;;;5052243;28;20189;-65
2022/08/07 12:59:27;;;;;;;3.67;2.95;;;;;;;;;;5052851;28;20194;-67
2022/08/07 13:02:03;;;;;;;4.38;2.67;;;;;;;;;;5056629;28;20215;-66
2022/08/07 13:04:43;;;;;;;4.10;2.40;;;;;;;;;;5053372;28;20177;-66
2022/08/07 13:07:46;;;;;;;2.50;2.25;;;;;;;;;;5049757;28;20637;-66
2022/08/07 13:10:17;;;;;;;3.13;2.53;;;;;;;;;;5054770;28;20172;-67
2022/08/07 13:12:52;;;;;;;3.17;2.72;;;;;;;;;;5060338;28;20183;-66
2022/08/07 13:15:32;;;;;;;3.53;2.78;;;;;;;;;;4353524;28;10000693;-66
2022/08/07 13:18:03;;;;;;;3.60;2.65;;;;;;;;;;5058532;28;20181;-66
2022/08/07 13:20:45;;;;;;;3.40;2.60;;;;;;;;;;5060904;28;21635;-67
2022/08/07 13:23:18;;;;;;;4.68;2.70;;;;;;;;;;5060596;28;20180;-67
2022/08/07 13:26:04;;;;;;;5.63;3.28;;;;;;;;;;5056628;28;20197;-76
2022/08/07 13:28:36;;;;;;;3.28;2.90;;;;;;;;;;5061422;28;20640;-74
2022/08/07 13:31:11;;;;;;;4.70;2.53;;;;;;;;;;5059818;28;21033;-70
2022/08/07 13:33:54;;;;;;;3.38;2.72;;;;;;;;;;5060263;28;20258;-68
2022/08/07 13:36:29;;;;;;;4.13;2.72;;;;;;;;;;5063149;28;20192;-68
2022/08/07 13:39:31;;;;;;;3.55;2.90;;;;;;;;;;5058912;28;20271;-67
2022/08/07 13:41:59;;;;;;;3.08;2.78;;;;;;;;;;5058813;28;20213;-68
2022/08/07 13:44:30;;;;;;;3.05;2.13;;;;;;;;;;5057837;28;20189;-67
2022/08/07 13:46:58;;;;;;;5.03;2.90;;;;;;;;;;5060803;28;20176;-68
2022/08/07 13:49:30;;;;;;;3.63;2.45;;;;;;;;;;5061967;28;20189;-67
2022/08/07 13:51:57;;;;;;;3.88;2.92;;;;;;;;;;5060187;28;20651;-67
2022/08/07 13:54:29;;;;;;;4.10;2.60;;;;;;;;;;5061135;28;20227;-69
2022/08/07 13:56:57;;;;;;;3.47;2.63;;;;;;;;;;5054565;28;20210;-66
2022/08/07 13:59:30;;;;;;;3.67;2.35;;;;;;;;;;5064114;28;20537;-67
2022/08/07 14:02:21;;;;;;;3.83;2.60;;;;;;;;;;5060773;28;20216;-68
2022/08/07 14:04:53;;;;;;;3.38;2.45;;;;;;;;;;5061527;28;20207;-68
2022/08/07 14:07:20;;;;;;;2.92;2.45;;;;;;;;;;5049590;28;20236;-69
2022/08/07 14:09:50;;;;;;;3.63;2.65;;;;;;;;;;5056304;28;20647;-68
2022/08/07 14:12:27;;;;;;;3.90;2.20;;;;;;;;;;5056944;28;20315;-68
2022/08/07 14:14:59;;;;;;;2.95;2.25;;;;;;;;;;5064441;28;20265;-68
2022/08/07 14:17:26;;;;;;;2.85;2.42;;;;;;;;;;5063117;28;20182;-66
2022/08/07 14:19:56;;;;;;;2.47;2.20;;;;;;;;;;5061566;28;20185;-67
2022/08/07 14:22:26;;;;;;;3.05;2.40;;;;;;;;;;5063762;28;20212;-68
2022/08/07 14:24:57;;;;;;;2.50;2.30;;;;;;;;;;5063493;28;20177;-65
2022/08/07 14:27:33;;;;;;;4.45;2.40;;;;;;;;;;5058773;28;20282;-68
2022/08/07 14:30:03;;;;;;;3.08;2.42;;;;;;;;;;5054400;28;20199;-67
2022/08/07 14:32:29;;;;;;;2.97;2.10;;;;;;;;;;5052707;28;20223;-67
2022/08/07 14:34:58;;;;;;;2.90;2.30;;;;;;;;;;5060776;28;20185;-69
2022/08/07 14:37:24;;;;;;;3.55;2.40;;;;;;;;;;5061101;28;20199;-68
2022/08/07 14:39:51;;;;;;;3.35;2.17;;;;;;;;;;5060403;28;20279;-67
2022/08/07 14:42:22;;;;;;;2.35;2.10;;;;;;;;;;5058333;28;20257;-76
2022/08/07 14:44:52;;;;;;;3.95;2.25;;;;;;;;;;5061863;28;20606;-66
2022/08/07 14:47:18;;;;;;;3.58;2.35;;;;;;;;;;5058257;28;20189;-70
2022/08/07 14:49:45;;;;;;;2.97;2.38;;;;;;;;;;5059545;28;20177;-69
2022/08/07 14:52:12;;;;;;;2.60;2.40;;;;;;;;;;5056971;28;20577;-67
2022/08/07 14:54:40;;;;;;;3.30;2.72;;;;;;;;;;5056137;28;20376;-68
2022/08/07 14:57:10;;;;;;;4.82;2.80;;;;;;;;;;5053105;28;20217;-68
2022/08/07 14:59:38;;;;;;;2.60;2.30;;;;;;;;;;5063739;28;20275;-77
2022/08/07 15:02:12;;;;;;;3.20;2.25;;;;;;;;;;5055322;28;20317;-68
2022/08/07 15:04:43;;;;;;;2.67;2.40;;;;;;;;;;5051062;28;20212;-67
2022/08/07 15:07:15;;;;;;;3.53;1.92;;;;;;;;;;5058417;28;20556;-67
2022/08/07 15:09:42;;;;;;;2.90;2.28;;;;;;;;;;5057510;28;20186;-67